Time;durP1;ratioP1;P1;durP2;ratioP2;P2;SDS_P1;SDS_P2;PMS_P1;PMS_P2;Temp;Humidity;BMP_temperature;BMP_pressure;BME280_temperature;BME280_humidity;BME280_pressure;Samples;Min_cycle;Max_cycle;Signal;HPM_P1;HPM_P2
2024/01/27 00:01:23;;;;;;;11.27;2.53;;;;;;;3.57;98.47;102935.25;5053381;28;20036;-62
2024/01/27 00:03:49;;;;;;;12.70;2.63;;;;;;;3.60;98.24;102933.75;5066244;28;20127;-62
2024/01/27 00:06:15;;;;;;;14.48;3.50;;;;;;;3.62;98.02;102938.97;5065731;28;20029;-61
2024/01/27 00:08:40;;;;;;;14.55;2.80;;;;;;;3.61;98.45;102930.41;5054705;28;20487;-63
2024/01/27 00:11:05;;;;;;;10.93;3.50;;;;;;;3.53;98.48;102934.22;5066739;28;20036;-62
2024/01/27 00:13:31;;;;;;;11.65;2.80;;;;;;;3.55;98.88;102932.63;5065457;28;20027;-62
2024/01/27 00:15:57;;;;;;;11.32;2.53;;;;;;;3.52;98.64;102933.34;5063124;28;20040;-62
2024/01/27 00:18:23;;;;;;;14.43;2.38;;;;;;;3.50;99.31;102934.94;5060739;28;20028;-62
2024/01/27 00:20:48;;;;;;;10.77;2.97;;;;;;;3.47;98.84;102933.88;5057837;28;20623;-62
2024/01/27 00:23:14;;;;;;;14.00;2.75;;;;;;;3.41;99.40;102928.41;5059066;28;20040;-62
2024/01/27 00:25:39;;;;;;;10.40;2.38;;;;;;;3.38;99.11;102934.25;5059838;28;20036;-62
2024/01/27 00:28:05;;;;;;;10.50;2.85;;;;;;;3.32;99.26;102931.34;5061397;28;20032;-62
2024/01/27 00:30:30;;;;;;;11.70;2.60;;;;;;;3.27;100.00;102929.34;5059337;28;20403;-62
2024/01/27 00:32:55;;;;;;;14.43;2.65;;;;;;;3.26;100.00;102932.72;5057725;28;20102;-62
2024/01/27 00:35:21;;;;;;;9.95;2.75;;;;;;;3.23;100.00;102935.09;5059133;28;20037;-62
2024/01/27 00:37:47;;;;;;;14.52;2.65;;;;;;;3.19;100.00;102939.16;5057938;28;20017;-62
2024/01/27 00:40:12;;;;;;;8.90;2.63;;;;;;;3.13;100.00;102941.38;5058874;28;20025;-62
2024/01/27 00:42:38;;;;;;;14.75;2.38;;;;;;;3.13;100.00;102946.47;5058570;28;20107;-62
2024/01/27 00:45:04;;;;;;;12.15;2.90;;;;;;;3.15;100.00;102946.53;5057373;28;20033;-66
2024/01/27 00:47:30;;;;;;;10.18;2.55;;;;;;;3.15;100.00;102951.66;5061293;28;20078;-66
2024/01/27 00:49:56;;;;;;;13.63;2.53;;;;;;;3.14;100.00;102947.38;5063748;28;20509;-66
2024/01/27 00:52:22;;;;;;;15.45;2.88;;;;;;;3.17;100.00;102948.38;5063818;28;20032;-66
2024/01/27 00:54:47;;;;;;;9.57;2.92;;;;;;;3.15;100.00;102946.53;5056476;28;20032;-66
2024/01/27 00:57:12;;;;;;;13.48;3.42;;;;;;;3.16;100.00;102949.19;5060226;28;20036;-67
2024/01/27 00:59:38;;;;;;;9.25;2.33;;;;;;;3.19;100.00;102951.94;5052213;28;20403;-66
2024/01/27 01:02:04;;;;;;;11.20;3.05;;;;;;;3.17;100.00;102945.84;5060671;28;20024;-66
2024/01/27 01:04:29;;;;;;;17.50;4.32;;;;;;;3.18;100.00;102955.28;5064224;28;20534;-66
2024/01/27 01:06:55;;;;;;;15.93;2.78;;;;;;;3.17;100.00;102955.19;5059197;28;20040;-66
2024/01/27 01:09:20;;;;;;;10.43;2.60;;;;;;;3.17;100.00;102950.09;5060124;28;20507;-66
2024/01/27 01:11:46;;;;;;;13.48;4.05;;;;;;;3.20;100.00;102948.56;5058352;28;20419;-66
2024/01/27 01:14:11;;;;;;;11.10;2.40;;;;;;;3.15;100.00;102947.44;5057550;28;20104;-66
2024/01/27 01:16:37;;;;;;;13.20;2.90;;;;;;;3.09;100.00;102952.19;5064142;28;20029;-66
2024/01/27 01:19:02;;;;;;;12.63;2.55;;;;;;;3.08;100.00;102957.22;5064663;28;20191;-66
2024/01/27 01:21:28;;;;;;;14.60;3.00;;;;;;;3.05;100.00;102959.63;5057265;28;20039;-66
2024/01/27 01:23:54;;;;;;;20.90;3.00;;;;;;;3.01;100.00;102968.78;5056591;28;20108;-66
2024/01/27 01:26:19;;;;;;;15.32;2.83;;;;;;;2.94;100.00;102970.09;5057123;28;20068;-67
2024/01/27 01:28:44;;;;;;;11.63;2.92;;;;;;;2.91;100.00;102977.56;5055016;28;20483;-66
2024/01/27 01:31:10;;;;;;;13.35;3.60;;;;;;;2.88;100.00;102977.41;5058294;28;20438;-66
2024/01/27 01:33:35;;;;;;;7.93;2.50;;;;;;;2.84;100.00;102979.69;5062758;28;20028;-66
2024/01/27 01:36:00;;;;;;;9.18;2.20;;;;;;;2.79;100.00;102974.31;5062613;28;20037;-66
2024/01/27 01:38:26;;;;;;;10.98;2.33;;;;;;;2.76;100.00;102963.91;5060276;28;20071;-66
2024/01/27 01:40:51;;;;;;;11.25;2.50;;;;;;;2.74;100.00;102957.84;5060923;28;20029;-66
2024/01/27 01:43:16;;;;;;;13.00;2.55;;;;;;;2.74;100.00;102956.97;5058340;28;20040;-66
2024/01/27 01:45:42;;;;;;;13.75;2.58;;;;;;;2.75;100.00;102962.19;5060146;28;20548;-66
2024/01/27 01:48:08;;;;;;;10.60;2.60;;;;;;;2.75;100.00;102958.72;5063951;28;20450;-66
2024/01/27 01:50:34;;;;;;;6.75;2.33;;;;;;;2.69;100.00;102954.16;5060704;28;20029;-66
2024/01/27 01:53:00;;;;;;;12.60;3.17;;;;;;;2.67;100.00;102960.81;5054472;28;20487;-65
2024/01/27 01:55:26;;;;;;;11.57;3.00;;;;;;;2.67;100.00;102967.59;5057219;28;20086;-66
2024/01/27 01:57:51;;;;;;;10.77;2.45;;;;;;;2.68;100.00;102966.81;5064266;28;20334;-66
2024/01/27 02:00:17;;;;;;;9.85;2.13;;;;;;;2.63;100.00;102964.00;5058629;28;20119;-67
2024/01/27 02:02:45;;;;;;;9.88;2.22;;;;;;;2.60;100.00;102968.94;5061965;28;20028;-66
2024/01/27 02:05:14;;;;;;;9.38;2.97;;;;;;;2.58;100.00;102972.19;5059533;28;20060;-66
2024/01/27 02:07:39;;;;;;;9.43;2.42;;;;;;;2.59;100.00;102963.72;5057040;28;20028;-66
2024/01/27 02:10:12;;;;;;;7.18;3.50;;;;;;;2.59;100.00;102971.38;5039586;28;20029;-61
2024/01/27 02:12:37;;;;;;;8.00;2.42;;;;;;;2.57;100.00;102971.31;5048709;28;20041;-62
2024/01/27 02:15:03;;;;;;;10.07;2.65;;;;;;;2.61;100.00;102975.78;5047605;28;20079;-62
2024/01/27 02:17:28;;;;;;;10.65;2.28;;;;;;;2.63;100.00;102969.13;5045824;28;20124;-63
2024/01/27 02:19:54;;;;;;;13.00;4.40;;;;;;;2.71;100.00;102970.44;5049407;28;20025;-63
2024/01/27 02:22:19;;;;;;;10.43;3.08;;;;;;;2.69;100.00;102960.94;5050370;28;20372;-62
2024/01/27 02:24:46;;;;;;;9.68;3.05;;;;;;;2.69;100.00;102966.03;5050489;28;20090;-63
2024/01/27 02:27:11;;;;;;;9.15;3.08;;;;;;;2.74;100.00;102964.63;5050172;28;20538;-62
2024/01/27 02:29:37;;;;;;;9.98;2.17;;;;;;;2.74;100.00;102962.94;5051489;28;20049;-62
2024/01/27 02:32:02;;;;;;;12.18;3.15;;;;;;;2.70;100.00;102966.09;5051511;28;20064;-62
2024/01/27 02:34:28;;;;;;;8.77;2.45;;;;;;;2.72;100.00;102963.66;5051687;28;20025;-62
2024/01/27 02:36:53;;;;;;;18.95;3.30;;;;;;;2.66;100.00;102959.09;5053494;28;20483;-62
2024/01/27 02:39:18;;;;;;;14.90;2.70;;;;;;;2.65;100.00;102959.88;5064204;28;20028;-62
2024/01/27 02:41:44;;;;;;;12.75;2.78;;;;;;;2.65;100.00;102964.97;5064648;28;20060;-62
2024/01/27 02:44:09;;;;;;;8.25;2.42;;;;;;;2.65;100.00;102969.19;5050815;28;20071;-63
2024/01/27 02:46:34;;;;;;;8.95;2.13;;;;;;;2.61;100.00;102969.78;5052707;28;20041;-62
2024/01/27 02:49:00;;;;;;;10.75;3.25;;;;;;;2.55;100.00;102969.47;5051182;28;20029;-62
2024/01/27 02:51:25;;;;;;;13.98;3.47;;;;;;;2.54;100.00;102967.69;5052626;28;20032;-62
2024/01/27 02:53:50;;;;;;;13.32;3.35;;;;;;;2.54;100.00;102981.34;5059008;28;20090;-63
2024/01/27 02:56:17;;;;;;;11.57;2.63;;;;;;;2.53;100.00;102976.13;5069661;28;20025;-62
2024/01/27 02:58:42;;;;;;;14.60;2.95;;;;;;;2.50;100.00;102975.94;5071817;28;20033;-63
2024/01/27 03:01:07;;;;;;;13.85;3.67;;;;;;;2.44;100.00;102981.56;5052268;28;20033;-62
2024/01/27 03:03:33;;;;;;;10.40;2.38;;;;;;;2.45;100.00;102969.69;5050507;28;20045;-63
2024/01/27 03:05:58;;;;;;;11.02;2.80;;;;;;;2.42;100.00;102972.94;5050656;28;20029;-62
2024/01/27 03:08:24;;;;;;;15.27;2.20;;;;;;;2.40;100.00;102975.41;5052021;28;20135;-62
2024/01/27 03:10:50;;;;;;;9.88;2.90;;;;;;;2.44;100.00;102979.00;5055577;28;20108;-63
2024/01/27 03:13:15;;;;;;;12.82;2.65;;;;;;;2.26;100.00;102977.91;5050503;28;20033;-62
2024/01/27 03:15:43;;;;;;;8.20;2.38;;;;;;;2.12;100.00;102989.84;5050696;28;20100;-62
2024/01/27 03:18:08;;;;;;;10.23;2.80;;;;;;;2.07;100.00;102996.34;5050665;28;20079;-62
2024/01/27 03:20:33;;;;;;;8.48;3.03;;;;;;;1.92;100.00;102987.75;5050263;28;20051;-62
2024/01/27 03:22:59;;;;;;;14.25;3.17;;;;;;;1.82;100.00;102998.16;5050498;28;20037;-63
2024/01/27 03:25:25;;;;;;;13.25;3.20;;;;;;;1.70;100.00;102997.38;5051040;28;20029;-62
2024/01/27 03:27:51;;;;;;;11.65;2.83;;;;;;;1.60;100.00;102992.47;5050416;28;20044;-63
2024/01/27 03:30:17;;;;;;;12.20;3.22;;;;;;;1.50;100.00;102997.78;5050198;28;20506;-62
2024/01/27 03:32:42;;;;;;;13.30;3.00;;;;;;;1.34;100.00;103000.13;5049349;28;20060;-62
2024/01/27 03:35:07;;;;;;;12.77;2.70;;;;;;;1.22;100.00;103008.75;5050482;28;20082;-63
2024/01/27 03:37:34;;;;;;;10.82;3.00;;;;;;;1.23;100.00;103007.97;5050891;28;20032;-63
2024/01/27 03:40:00;;;;;;;9.05;2.83;;;;;;;1.21;100.00;103006.13;5050154;28;20488;-62
2024/01/27 03:42:25;;;;;;;13.20;3.10;;;;;;;1.17;100.00;103004.16;5048749;28;20059;-62
2024/01/27 03:44:51;;;;;;;9.30;2.38;;;;;;;1.12;100.00;103006.38;5050121;28;20064;-62
2024/01/27 03:47:17;;;;;;;10.30;3.72;;;;;;;1.12;100.00;103005.53;5050310;28;20033;-63
2024/01/27 03:49:42;;;;;;;14.98;3.83;;;;;;;1.01;100.00;103009.00;5050694;28;20345;-62
2024/01/27 03:52:07;;;;;;;16.50;3.42;;;;;;;0.92;100.00;103011.84;5050113;28;20037;-62
2024/01/27 03:54:33;;;;;;;6.88;2.83;;;;;;;0.86;100.00;103013.09;5050222;28;20036;-64
2024/01/27 03:56:58;;;;;;;15.45;3.08;;;;;;;0.77;100.00;103007.41;5051849;28;20036;-63
2024/01/27 03:59:23;;;;;;;14.57;3.40;;;;;;;0.70;100.00;103006.13;5053791;28;20567;-63
2024/01/27 04:01:49;;;;;;;12.77;3.20;;;;;;;0.68;100.00;103013.63;5070135;28;20020;-62
2024/01/27 04:04:14;;;;;;;11.68;3.35;;;;;;;0.71;100.00;103011.28;5068652;28;20032;-62
2024/01/27 04:06:40;;;;;;;10.85;2.42;;;;;;;0.68;100.00;103010.19;5069156;28;20040;-62
2024/01/27 04:09:09;;;;;;;12.80;2.92;;;;;;;0.67;100.00;103016.09;5069633;28;20078;-62
2024/01/27 04:11:38;;;;;;;7.88;2.70;;;;;;;0.64;100.00;103015.88;5069024;28;20035;-62
2024/01/27 04:14:04;;;;;;;14.00;3.20;;;;;;;0.64;100.00;103014.22;5069268;28;20020;-62
2024/01/27 04:16:30;;;;;;;12.70;3.08;;;;;;;0.63;100.00;103024.28;5070123;28;20105;-62
2024/01/27 04:18:55;;;;;;;17.90;3.65;;;;;;;0.58;100.00;103018.00;5069265;28;20120;-63
2024/01/27 04:21:21;;;;;;;12.00;3.17;;;;;;;0.54;100.00;103023.66;5057151;28;20104;-62
2024/01/27 04:23:46;;;;;;;20.48;4.22;;;;;;;0.43;100.00;103030.56;5049507;28;20029;-62
2024/01/27 04:26:12;;;;;;;11.82;3.40;;;;;;;0.33;100.00;103033.25;5050569;28;20041;-63
2024/01/27 04:28:37;;;;;;;24.35;5.20;;;;;;;0.31;100.00;103031.38;5031852;28;20476;-62
2024/01/27 04:31:03;;;;;;;8.27;3.00;;;;;;;0.26;100.00;103033.63;5051436;28;20041;-63
2024/01/27 04:33:28;;;;;;;13.18;3.33;;;;;;;0.28;100.00;103042.25;5068135;28;20036;-62
2024/01/27 04:35:53;;;;;;;13.82;3.35;;;;;;;0.31;100.00;103041.56;5061308;28;20040;-62
2024/01/27 04:38:19;;;;;;;14.43;3.28;;;;;;;0.32;100.00;103043.34;5049392;28;20522;-63
2024/01/27 04:40:45;;;;;;;7.85;2.53;;;;;;;0.28;100.00;103042.25;5049755;28;20021;-62
2024/01/27 04:43:14;;;;;;;15.85;3.67;;;;;;;0.27;100.00;103050.63;5047881;28;20492;-63
2024/01/27 04:45:40;;;;;;;9.18;3.10;;;;;;;0.26;100.00;103048.91;5048976;28;20508;-63
2024/01/27 04:48:05;;;;;;;10.98;3.15;;;;;;;0.29;100.00;103050.75;5050127;28;20078;-63
2024/01/27 04:50:31;;;;;;;13.27;3.65;;;;;;;0.32;100.00;103051.81;5060048;28;20107;-63
2024/01/27 04:52:56;;;;;;;10.57;3.35;;;;;;;0.28;100.00;103056.63;5069078;28;20495;-62
2024/01/27 04:55:21;;;;;;;15.70;3.65;;;;;;;0.22;100.00;103062.16;5069289;28;20518;-62
2024/01/27 04:57:47;;;;;;;11.77;3.53;;;;;;;0.19;100.00;103051.78;5068253;28;20029;-62
2024/01/27 05:00:13;;;;;;;11.40;4.25;;;;;;;0.14;100.00;103050.56;5057907;28;20036;-62
2024/01/27 05:02:42;;;;;;;7.15;2.90;;;;;;;0.07;100.00;103041.63;5047707;28;20511;-63
2024/01/27 05:05:08;;;;;;;11.38;4.07;;;;;;;0.04;100.00;103027.81;5048976;28;20044;-63
2024/01/27 05:07:34;;;;;;;10.30;3.38;;;;;;;0.06;100.00;103041.50;5045654;28;20075;-62
2024/01/27 05:09:59;;;;;;;11.52;3.88;;;;;;;0.00;100.00;103034.34;5048657;28;20049;-62
2024/01/27 05:12:25;;;;;;;14.43;3.83;;;;;;;0.03;100.00;103038.75;5048380;28;20456;-62
2024/01/27 05:14:50;;;;;;;14.55;4.13;;;;;;;-0.01;100.00;103044.41;5051189;28;20051;-62
2024/01/27 05:17:16;;;;;;;12.43;3.60;;;;;;;-0.06;100.00;103044.06;5048708;28;20087;-62
2024/01/27 05:19:41;;;;;;;13.00;3.22;;;;;;;-0.11;100.00;103040.34;5048665;28;20029;-62
2024/01/27 05:22:06;;;;;;;11.15;3.30;;;;;;;-0.15;100.00;103045.06;5048638;28;20124;-62
2024/01/27 05:24:32;;;;;;;13.88;3.65;;;;;;;-0.15;100.00;103033.25;5047900;28;20025;-62
2024/01/27 05:26:57;;;;;;;11.63;3.00;;;;;;;-0.15;100.00;103043.44;5046887;28;20029;-62
2024/01/27 05:29:23;;;;;;;15.95;3.30;;;;;;;-0.21;100.00;103045.53;5048226;28;20036;-62
2024/01/27 05:31:49;;;;;;;8.98;2.92;;;;;;;-0.24;100.00;103037.69;5048849;28;20643;-62
2024/01/27 05:34:14;;;;;;;6.47;2.88;;;;;;;-0.27;100.00;103034.94;5048444;28;20056;-62
2024/01/27 05:36:40;;;;;;;14.73;3.90;;;;;;;-0.24;100.00;103037.69;5048614;28;20697;-63
2024/01/27 05:39:06;;;;;;;11.85;3.88;;;;;;;-0.26;100.00;103034.16;5048185;28;20036;-63
2024/01/27 05:41:32;;;;;;;9.52;3.83;;;;;;;-0.26;100.00;103026.53;5048431;28;20039;-62
2024/01/27 05:43:57;;;;;;;11.90;3.33;;;;;;;-0.28;100.00;103043.34;5048167;28;20017;-63
2024/01/27 05:46:26;;;;;;;11.85;4.32;;;;;;;-0.32;100.00;103031.19;5047923;28;20091;-62
2024/01/27 05:48:53;;;;;;;14.23;3.33;;;;;;;-0.33;100.00;103047.19;5060515;28;20511;-63
2024/01/27 05:51:25;;;;;;;11.77;3.97;;;;;;;-0.33;100.00;103046.34;5059645;28;20440;-63
2024/01/27 05:53:50;;;;;;;14.82;3.33;;;;;;;-0.30;100.00;103041.47;5067821;28;20039;-63
2024/01/27 05:56:19;;;;;;;8.65;4.10;;;;;;;-0.30;100.00;103033.84;5090966;28;20111;-63
2024/01/27 05:58:44;;;;;;;13.30;3.55;;;;;;;-0.33;100.00;103037.03;5069174;28;20043;-62
2024/01/27 06:01:10;;;;;;;9.45;3.25;;;;;;;-0.36;100.00;103035.97;5049773;28;20484;-62
2024/01/27 06:03:35;;;;;;;10.75;3.58;;;;;;;-0.39;100.00;103037.47;5047964;28;20033;-62
2024/01/27 06:06:02;;;;;;;13.57;3.60;;;;;;;-0.42;100.00;103039.81;5048080;28;20114;-62
2024/01/27 06:08:27;;;;;;;8.90;3.60;;;;;;;-0.42;100.00;103038.91;5047854;28;20507;-62
2024/01/27 06:10:53;;;;;;;7.30;2.83;;;;;;;-0.46;100.00;103040.38;5047915;28;20120;-62
2024/01/27 06:13:18;;;;;;;9.40;3.03;;;;;;;-0.50;100.00;103040.03;5047715;28;20057;-62
2024/01/27 06:15:43;;;;;;;13.20;3.17;;;;;;;-0.50;100.00;103035.84;5047909;28;20475;-62
2024/01/27 06:18:09;;;;;;;13.80;3.80;;;;;;;-0.45;100.00;103047.19;5048026;28;20029;-63
2024/01/27 06:20:34;;;;;;;11.20;3.80;;;;;;;-0.43;100.00;103038.06;5047078;28;20116;-67
2024/01/27 06:22:59;;;;;;;15.32;4.30;;;;;;;-0.36;100.00;103030.88;5047984;28;20635;-67
2024/01/27 06:25:25;;;;;;;14.05;3.80;;;;;;;-0.35;100.00;103043.66;5048796;28;20064;-68
2024/01/27 06:27:50;;;;;;;14.27;4.78;;;;;;;-0.31;100.00;103043.13;5048144;28;20044;-68
2024/01/27 06:30:15;;;;;;;12.10;3.55;;;;;;;-0.27;100.00;103045.09;5048284;28;20041;-67
2024/01/27 06:32:42;;;;;;;9.75;3.50;;;;;;;-0.23;100.00;103041.13;5047692;28;20116;-67
2024/01/27 06:35:08;;;;;;;11.75;3.22;;;;;;;-0.17;100.00;103052.59;5048321;28;20040;-67
2024/01/27 06:37:33;;;;;;;11.00;3.35;;;;;;;-0.06;100.00;103049.16;5050278;28;20048;-67
2024/01/27 06:39:59;;;;;;;12.40;3.17;;;;;;;0.01;100.00;103053.91;5047676;28;20526;-68
2024/01/27 06:42:24;;;;;;;10.98;3.10;;;;;;;0.13;100.00;103054.78;5047931;28;20083;-67
2024/01/27 06:44:49;;;;;;;13.70;3.53;;;;;;;0.21;100.00;103062.94;5047887;28;20037;-67
2024/01/27 06:47:15;;;;;;;17.27;5.60;;;;;;;0.29;100.00;103045.66;5047806;28;20108;-68
2024/01/27 06:49:40;;;;;;;22.23;5.88;;;;;;;0.31;100.00;103049.19;5048313;28;20029;-67
2024/01/27 06:52:06;;;;;;;11.60;3.63;;;;;;;0.30;100.00;103055.94;5048229;28;20072;-67
2024/01/27 06:54:31;;;;;;;12.35;4.00;;;;;;;0.32;100.00;103061.16;5047653;28;20029;-67
2024/01/27 06:56:59;;;;;;;19.10;3.92;;;;;;;0.30;100.00;103072.84;5048224;28;20067;-68
2024/01/27 06:59:25;;;;;;;12.68;4.22;;;;;;;0.31;100.00;103072.97;5047932;28;20562;-68
2024/01/27 07:01:50;;;;;;;14.00;4.53;;;;;;;0.31;100.00;103072.09;5048232;28;20033;-67
2024/01/27 07:04:16;;;;;;;14.40;3.38;;;;;;;0.27;100.00;103070.97;5047467;28;20037;-67
2024/01/27 07:06:42;;;;;;;8.50;2.80;;;;;;;0.21;100.00;103083.28;5048202;28;20059;-68
2024/01/27 07:09:09;;;;;;;11.27;3.00;;;;;;;0.24;100.00;103087.69;5051600;28;20029;-67
2024/01/27 07:11:35;;;;;;;19.17;3.63;;;;;;;0.29;100.00;103082.13;5051366;28;20052;-67
2024/01/27 07:14:00;;;;;;;9.23;4.05;;;;;;;0.23;100.00;103088.47;5051222;28;20499;-67
2024/01/27 07:16:25;;;;;;;11.68;3.40;;;;;;;0.18;100.00;103085.59;5051509;28;20036;-67
2024/01/27 07:18:51;;;;;;;16.65;3.83;;;;;;;0.11;100.00;103076.66;5050954;28;20380;-67
2024/01/27 07:21:17;;;;;;;18.83;4.28;;;;;;;0.10;100.00;103080.00;5050927;28;20065;-67
2024/01/27 07:23:43;;;;;;;11.35;2.88;;;;;;;0.08;100.00;103085.75;5051325;28;20039;-67
2024/01/27 07:26:11;;;;;;;13.50;3.40;;;;;;;0.09;100.00;103079.88;5049795;28;20090;-67
2024/01/27 07:28:37;;;;;;;14.27;3.58;;;;;;;0.09;100.00;103085.84;5049718;28;20527;-67
2024/01/27 07:31:03;;;;;;;10.10;3.38;;;;;;;0.13;100.00;103085.28;5051068;28;20036;-67
2024/01/27 07:33:29;;;;;;;15.95;3.13;;;;;;;0.22;100.00;103091.78;5051303;28;20079;-67
2024/01/27 07:35:54;;;;;;;13.23;3.70;;;;;;;0.26;100.00;103088.69;5051167;28;20033;-67
2024/01/27 07:38:20;;;;;;;20.38;4.53;;;;;;;0.38;100.00;103094.63;5051463;28;20129;-67
2024/01/27 07:40:45;;;;;;;14.00;2.90;;;;;;;0.40;100.00;103096.50;5050766;28;20182;-67
2024/01/27 07:43:11;;;;;;;10.40;3.10;;;;;;;0.37;100.00;103095.41;5051041;28;20029;-67
2024/01/27 07:45:36;;;;;;;13.32;3.05;;;;;;;0.37;100.00;103092.84;5050743;28;20044;-67
2024/01/27 07:48:02;;;;;;;14.90;3.45;;;;;;;0.38;100.00;103104.81;5051111;28;20373;-67
2024/01/27 07:50:27;;;;;;;12.55;3.90;;;;;;;0.43;100.00;103106.00;5050717;28;20155;-68
2024/01/27 07:52:53;;;;;;;16.02;4.05;;;;;;;0.47;100.00;103108.84;5051319;28;20104;-67
2024/01/27 07:55:18;;;;;;;18.77;5.50;;;;;;;0.54;100.00;103116.16;5050341;28;20427;-68
2024/01/27 07:57:44;;;;;;;19.55;4.55;;;;;;;0.66;100.00;103117.00;5050463;28;20025;-67
2024/01/27 08:00:10;;;;;;;14.32;4.65;;;;;;;0.80;100.00;103117.94;5050321;28;20040;-68
2024/01/27 08:02:35;;;;;;;16.63;4.65;;;;;;;0.82;100.00;103116.41;5050417;28;20037;-67
2024/01/27 08:05:02;;;;;;;14.73;5.00;;;;;;;0.84;100.00;103109.72;5050416;28;20033;-67
2024/01/27 08:07:28;;;;;;;15.50;4.43;;;;;;;0.88;100.00;103109.19;5051221;28;20089;-60
2024/01/27 08:09:54;;;;;;;16.52;4.95;;;;;;;0.96;100.00;103108.03;5050266;28;20472;-68
2024/01/27 08:12:19;;;;;;;19.10;4.38;;;;;;;1.19;100.00;103107.91;5053849;28;20086;-67
2024/01/27 08:14:44;;;;;;;12.20;4.35;;;;;;;1.26;100.00;103127.91;5051146;28;20662;-67
2024/01/27 08:17:10;;;;;;;22.83;4.25;;;;;;;1.33;100.00;103126.63;5050551;28;20037;-67
2024/01/27 08:19:35;;;;;;;8.48;3.50;;;;;;;1.39;100.00;103126.19;5050224;28;20021;-67
2024/01/27 08:22:00;;;;;;;13.40;4.20;;;;;;;1.49;100.00;103128.53;5050669;28;20090;-67
2024/01/27 08:24:26;;;;;;;15.13;3.95;;;;;;;1.58;100.00;103116.38;5050715;28;20044;-68
2024/01/27 08:26:51;;;;;;;21.92;4.63;;;;;;;1.65;100.00;103116.03;5049090;28;20033;-60
2024/01/27 08:29:16;;;;;;;15.23;5.53;;;;;;;1.67;100.00;103117.00;5050400;28;20032;-60
2024/01/27 08:31:42;;;;;;;12.35;3.47;;;;;;;1.71;100.00;103126.63;5050634;28;20456;-60
2024/01/27 08:34:08;;;;;;;20.00;3.85;;;;;;;1.76;100.00;103135.44;5049756;28;20025;-63
2024/01/27 08:36:34;;;;;;;18.48;3.47;;;;;;;1.79;100.00;103133.09;5050036;28;20033;-63
2024/01/27 08:39:00;;;;;;;14.13;3.83;;;;;;;1.86;100.00;103132.72;5050001;28;20056;-63
2024/01/27 08:41:25;;;;;;;12.82;2.75;;;;;;;1.93;100.00;103131.41;5050146;28;20056;-63
2024/01/27 08:43:51;;;;;;;11.07;2.75;;;;;;;1.97;100.00;103133.38;5049427;28;20131;-64
2024/01/27 08:46:19;;;;;;;10.38;2.83;;;;;;;2.01;100.00;103127.69;5049740;28;20037;-63
2024/01/27 08:48:44;;;;;;;7.93;2.80;;;;;;;2.08;100.00;103127.28;5048810;28;20188;-63
2024/01/27 08:51:11;;;;;;;7.32;2.92;;;;;;;2.14;100.00;103117.47;5049802;28;20698;-63
2024/01/27 08:53:37;;;;;;;11.32;3.78;;;;;;;2.20;100.00;103126.41;5050017;28;20080;-63
2024/01/27 08:56:03;;;;;;;9.23;3.17;;;;;;;2.25;100.00;103119.06;5049565;28;20444;-63
2024/01/27 08:58:28;;;;;;;11.98;2.85;;;;;;;2.31;100.00;103111.78;5049558;28;20033;-63
2024/01/27 09:00:53;;;;;;;15.32;3.08;;;;;;;2.37;100.00;103112.13;5049365;28;20108;-63
2024/01/27 09:03:22;;;;;;;10.15;3.45;;;;;;;2.44;100.00;103098.97;5049597;28;20072;-63
2024/01/27 09:05:47;;;;;;;10.90;3.60;;;;;;;2.51;100.00;103102.78;5048762;28;20589;-63
2024/01/27 09:08:13;;;;;;;10.98;3.30;;;;;;;2.57;100.00;103103.16;5049800;28;20049;-62
2024/01/27 09:10:38;;;;;;;8.35;3.22;;;;;;;2.62;100.00;103091.56;5061958;28;20070;-62
2024/01/27 09:13:04;;;;;;;13.45;3.38;;;;;;;2.67;100.00;103102.91;5052722;28;20086;-63
2024/01/27 09:15:30;;;;;;;9.02;3.30;;;;;;;2.78;100.00;103101.91;5050302;28;20223;-63
2024/01/27 09:17:55;;;;;;;10.35;3.00;;;;;;;2.83;100.00;103092.84;5047751;28;20033;-62
2024/01/27 09:20:21;;;;;;;9.50;3.08;;;;;;;2.94;100.00;103092.69;5048633;28;20635;-63
2024/01/27 09:22:47;;;;;;;10.75;3.17;;;;;;;3.05;100.00;103083.13;5049622;28;20151;-62
2024/01/27 09:25:13;;;;;;;15.43;4.00;;;;;;;3.18;100.00;103077.94;5048619;28;20484;-62
2024/01/27 09:27:39;;;;;;;9.10;3.60;;;;;;;3.29;100.00;103073.47;5047842;28;20028;-63
2024/01/27 09:30:05;;;;;;;14.15;3.20;;;;;;;3.38;100.00;103066.28;5048449;28;20381;-63
2024/01/27 09:32:31;;;;;;;12.95;3.53;;;;;;;3.51;100.00;103053.41;5049046;28;20047;-63
2024/01/27 09:34:56;;;;;;;11.57;3.00;;;;;;;3.62;100.00;103061.72;5049243;28;20021;-63
2024/01/27 09:37:22;;;;;;;10.48;2.90;;;;;;;3.73;100.00;103058.97;5049294;28;20619;-62
2024/01/27 09:39:47;;;;;;;10.75;4.70;;;;;;;3.86;99.37;103063.06;5047314;28;20033;-63
2024/01/27 09:42:16;;;;;;;12.23;3.75;;;;;;;3.98;98.05;103046.69;5048813;28;20116;-63
2024/01/27 09:44:46;;;;;;;14.98;3.45;;;;;;;4.10;97.46;103055.06;5048774;28;20041;-63
2024/01/27 09:47:13;;;;;;;15.70;4.72;;;;;;;4.17;97.79;103053.72;5048609;28;20036;-64
2024/01/27 09:49:41;;;;;;;19.50;4.65;;;;;;;4.26;97.58;103041.41;5049336;28;20097;-64
2024/01/27 09:52:06;;;;;;;7.82;3.42;;;;;;;4.42;95.69;103018.34;5048634;28;20048;-63
2024/01/27 09:54:31;;;;;;;12.23;3.63;;;;;;;4.48;95.19;103012.66;5048768;28;20029;-64
2024/01/27 09:56:58;;;;;;;17.27;3.72;;;;;;;4.57;93.76;103008.91;5048612;28;20511;-63
2024/01/27 09:59:25;;;;;;;11.68;4.10;;;;;;;4.63;94.52;103027.16;5049110;28;20499;-63
2024/01/27 10:01:52;;;;;;;11.82;3.70;;;;;;;4.70;94.80;103033.47;5048819;28;20021;-63
2024/01/27 10:04:20;;;;;;;16.45;3.28;;;;;;;4.78;93.79;103036.41;5047180;28;20029;-63
2024/01/27 10:06:47;;;;;;;16.25;4.03;;;;;;;4.73;92.95;103025.06;5047850;28;20064;-64
2024/01/27 10:09:12;;;;;;;10.18;3.80;;;;;;;4.79;92.92;103030.50;5049339;28;20116;-64
2024/01/27 10:11:42;;;;;;;9.88;3.50;;;;;;;4.85;93.11;103025.69;5047142;28;20124;-63
2024/01/27 10:14:08;;;;;;;8.20;2.75;;;;;;;4.88;92.93;103020.72;5048444;28;20057;-63
2024/01/27 10:16:44;;;;;;;16.05;4.60;;;;;;;4.92;92.19;103013.25;5049469;28;20114;-63
2024/01/27 10:19:17;;;;;;;12.52;3.20;;;;;;;4.96;91.05;103015.19;5048019;28;20705;-60
2024/01/27 10:21:42;;;;;;;16.20;3.85;;;;;;;5.05;90.71;103019.88;5047600;28;20597;-60
2024/01/27 10:24:08;;;;;;;10.57;3.53;;;;;;;5.15;90.68;103015.31;5048785;28;20681;-59
2024/01/27 10:26:34;;;;;;;16.00;3.58;;;;;;;5.25;87.73;102992.69;5047151;28;20025;-60
2024/01/27 10:29:01;;;;;;;12.68;3.55;;;;;;;5.31;87.87;103009.22;5047658;28;20049;-61
2024/01/27 10:31:32;;;;;;;11.73;3.63;;;;;;;5.39;88.41;103015.63;5049557;28;20031;-60
2024/01/27 10:33:57;;;;;;;7.97;3.28;;;;;;;5.43;87.49;103020.06;5048077;28;20583;-60
2024/01/27 10:36:24;;;;;;;11.85;4.18;;;;;;;5.52;87.21;103010.25;5048794;28;20055;-60
2024/01/27 10:38:49;;;;;;;12.88;3.38;;;;;;;5.61;87.96;103008.13;5048413;28;20033;-60
2024/01/27 10:41:23;;;;;;;11.82;3.90;;;;;;;5.65;87.58;102991.19;5050898;28;20051;-60
2024/01/27 10:43:50;;;;;;;19.50;4.75;;;;;;;5.71;87.60;103000.06;5052183;28;20114;-60
2024/01/27 10:46:18;;;;;;;14.15;3.67;;;;;;;5.74;86.92;102989.06;5052135;28;20040;-60
2024/01/27 10:48:49;;;;;;;13.82;3.83;;;;;;;5.78;85.81;102980.72;5052010;28;20060;-60
2024/01/27 10:51:17;;;;;;;12.90;3.63;;;;;;;5.87;85.30;102976.00;5055864;28;20036;-60
2024/01/27 10:53:48;;;;;;;10.85;3.60;;;;;;;6.04;83.00;102946.84;5051851;28;20032;-60
2024/01/27 10:56:14;;;;;;;19.27;3.17;;;;;;;6.12;83.49;102970.28;5051954;28;21181;-60
2024/01/27 10:58:41;;;;;;;14.00;3.55;;;;;;;6.20;83.45;102969.81;5052269;28;20025;-60
2024/01/27 11:01:14;;;;;;;13.38;3.25;;;;;;;6.30;83.83;102976.22;5051839;28;20033;-60
2024/01/27 11:03:41;;;;;;;13.40;3.63;;;;;;;6.34;83.78;102973.00;5048547;28;20110;-60
2024/01/27 11:06:07;;;;;;;11.60;3.50;;;;;;;6.17;84.58;102987.63;5051729;28;20385;-60
2024/01/27 11:08:37;;;;;;;9.65;2.67;;;;;;;6.15;84.62;102986.69;5051771;28;20515;-60
2024/01/27 11:11:03;;;;;;;12.23;3.75;;;;;;;6.19;84.47;102998.00;5053500;28;20365;-63
2024/01/27 11:13:31;;;;;;;12.85;2.83;;;;;;;6.13;84.87;103003.75;5051645;28;20020;-63